sensor_id;sensor_type;location;lat;lon;timestamp;pressure;altitude;pressure_sealevel;temperature;humidity
13033;BME280;6583;42.632;23.298;2024-03-25T00:00:48;70309.91;;;-146.40;99.95
13033;BME280;6583;42.632;23.298;2024-03-25T00:03:15;70303.84;;;-146.40;99.28
13033;BME280;6583;42.632;23.298;2024-03-25T00:05:42;70287.66;;;-146.40;100.00
13033;BME280;6583;42.632;23.298;2024-03-25T00:08:08;70287.66;;;-146.40;100.00
13033;BME280;6583;42.632;23.298;2024-03-25T00:10:35;70279.56;;;-146.40;100.00
13033;BME280;6583;42.632;23.298;2024-03-25T00:13:02;70267.44;;;-146.40;99.22
13033;BME280;6583;42.632;23.298;2024-03-25T00:15:29;70251.25;;;-146.40;99.92
13033;BME280;6583;42.632;23.298;2024-03-25T00:17:55;70267.44;;;-146.40;99.09
13033;BME280;6583;42.632;23.298;2024-03-25T00:20:23;70259.34;;;-146.40;98.30
13033;BME280;6583;42.632;23.298;2024-03-25T00:22:49;70267.44;;;-146.40;98.13
13033;BME280;6583;42.632;23.298;2024-03-25T00:25:16;70251.25;;;-146.40;98.36
13033;BME280;6583;42.632;23.298;2024-03-25T00:27:42;70243.16;;;-146.40;97.99
13033;BME280;6583;42.632;23.298;2024-03-25T00:30:10;70245.19;;;-146.40;97.65
13033;BME280;6583;42.632;23.298;2024-03-25T00:32:35;70243.16;;;-146.40;97.25
13033;BME280;6583;42.632;23.298;2024-03-25T00:35:06;70277.56;;;-146.40;97.47
13033;BME280;6583;42.632;23.298;2024-03-25T00:37:33;70251.25;;;-146.40;98.16
13033;BME280;6583;42.632;23.298;2024-03-25T00:39:59;70265.41;;;-146.40;97.38
13033;BME280;6583;42.632;23.298;2024-03-25T00:42:25;70273.50;;;-146.40;98.09
13033;BME280;6583;42.632;23.298;2024-03-25T00:44:52;70275.53;;;-146.40;98.25
13033;BME280;6583;42.632;23.298;2024-03-25T00:47:17;70285.66;;;-146.40;98.13
13033;BME280;6583;42.632;23.298;2024-03-25T00:49:44;70299.81;;;-146.40;99.31
13033;BME280;6583;42.632;23.298;2024-03-25T00:52:10;70309.91;;;-146.40;99.82
13033;BME280;6583;42.632;23.298;2024-03-25T00:54:38;70309.91;;;-146.40;99.86
13033;BME280;6583;42.632;23.298;2024-03-25T00:57:04;70307.91;;;-146.40;100.00
13033;BME280;6583;42.632;23.298;2024-03-25T00:59:30;70311.94;;;-146.40;100.00
13033;BME280;6583;42.632;23.298;2024-03-25T01:01:56;70307.91;;;-146.40;100.00
13033;BME280;6583;42.632;23.298;2024-03-25T01:04:23;70299.81;;;-146.40;100.00
13033;BME280;6583;42.632;23.298;2024-03-25T01:06:49;70297.78;;;-146.40;100.00
13033;BME280;6583;42.632;23.298;2024-03-25T01:09:15;70291.72;;;-146.40;100.00
13033;BME280;6583;42.632;23.298;2024-03-25T01:11:42;70273.50;;;-146.40;100.00
13033;BME280;6583;42.632;23.298;2024-03-25T01:14:09;70263.38;;;-146.40;100.00
13033;BME280;6583;42.632;23.298;2024-03-25T01:16:35;70275.53;;;-146.40;100.00
13033;BME280;6583;42.632;23.298;2024-03-25T01:19:01;70269.47;;;-146.40;100.00
13033;BME280;6583;42.632;23.298;2024-03-25T01:21:27;70275.53;;;-146.40;100.00
13033;BME280;6583;42.632;23.298;2024-03-25T01:23:55;70265.41;;;-146.40;100.00
13033;BME280;6583;42.632;23.298;2024-03-25T01:26:21;70255.28;;;-146.40;100.00
13033;BME280;6583;42.632;23.298;2024-03-25T01:28:49;70255.28;;;-146.40;100.00
13033;BME280;6583;42.632;23.298;2024-03-25T01:31:14;70255.28;;;-146.40;100.00
13033;BME280;6583;42.632;23.298;2024-03-25T01:33:41;70265.41;;;-146.40;100.00
13033;BME280;6583;42.632;23.298;2024-03-25T01:36:07;70279.56;;;-146.40;100.00
13033;BME280;6583;42.632;23.298;2024-03-25T01:38:36;70281.59;;;-146.40;100.00
13033;BME280;6583;42.632;23.298;2024-03-25T01:41:08;70275.53;;;-146.40;100.00
13033;BME280;6583;42.632;23.298;2024-03-25T01:43:35;70259.34;;;-146.40;100.00
13033;BME280;6583;42.632;23.298;2024-03-25T01:46:02;70253.28;;;-146.40;100.00
13033;BME280;6583;42.632;23.298;2024-03-25T01:48:29;70245.19;;;-146.40;100.00
13033;BME280;6583;42.632;23.298;2024-03-25T01:50:56;70243.16;;;-146.40;100.00
13033;BME280;6583;42.632;23.298;2024-03-25T01:53:24;70235.06;;;-146.40;100.00
13033;BME280;6583;42.632;23.298;2024-03-25T01:55:51;70241.13;;;-146.40;100.00
13033;BME280;6583;42.632;23.298;2024-03-25T01:58:21;70247.22;;;-146.40;100.00
13033;BME280;6583;42.632;23.298;2024-03-25T02:00:47;70261.38;;;-146.40;100.00
13033;BME280;6583;42.632;23.298;2024-03-25T02:03:15;70255.28;;;-146.40;100.00
13033;BME280;6583;42.632;23.298;2024-03-25T02:05:41;70261.38;;;-146.40;100.00
13033;BME280;6583;42.632;23.298;2024-03-25T02:08:09;70279.56;;;-146.40;100.00
13033;BME280;6583;42.632;23.298;2024-03-25T02:10:35;70271.47;;;-146.40;100.00
13033;BME280;6583;42.632;23.298;2024-03-25T02:13:02;70275.53;;;-146.40;100.00
13033;BME280;6583;42.632;23.298;2024-03-25T02:15:28;70293.75;;;-146.40;99.46
13033;BME280;6583;42.632;23.298;2024-03-25T02:17:54;70309.91;;;-146.40;99.80
13033;BME280;6583;42.632;23.298;2024-03-25T02:20:21;70334.19;;;-146.40;100.00
13033;BME280;6583;42.632;23.298;2024-03-25T02:22:48;70368.59;;;-146.40;100.00
13033;BME280;6583;42.632;23.298;2024-03-25T02:25:16;70360.50;;;-146.40;100.00
13033;BME280;6583;42.632;23.298;2024-03-25T02:27:44;70366.56;;;-146.40;100.00
13033;BME280;6583;42.632;23.298;2024-03-25T02:30:11;70400.97;;;-146.40;100.00
13033;BME280;6583;42.632;23.298;2024-03-25T02:32:39;70400.97;;;-146.40;100.00
13033;BME280;6583;42.632;23.298;2024-03-25T02:35:08;70396.91;;;-146.40;100.00
13033;BME280;6583;42.632;23.298;2024-03-25T02:37:36;70392.88;;;-146.40;100.00
13033;BME280;6583;42.632;23.298;2024-03-25T02:40:04;70388.81;;;-146.40;100.00
13033;BME280;6583;42.632;23.298;2024-03-25T02:42:32;70374.66;;;-146.40;100.00
13033;BME280;6583;42.632;23.298;2024-03-25T02:45:00;70354.44;;;-146.40;100.00
13033;BME280;6583;42.632;23.298;2024-03-25T02:47:26;70344.31;;;-146.40;100.00
13033;BME280;6583;42.632;23.298;2024-03-25T02:49:52;70340.28;;;-146.40;100.00
13033;BME280;6583;42.632;23.298;2024-03-25T02:52:19;70334.19;;;-146.40;100.00
13033;BME280;6583;42.632;23.298;2024-03-25T02:54:45;70346.34;;;-146.40;99.61
13033;BME280;6583;42.632;23.298;2024-03-25T02:57:12;70348.38;;;-146.40;98.16
13033;BME280;6583;42.632;23.298;2024-03-25T02:59:37;70336.22;;;-146.40;98.33
13033;BME280;6583;42.632;23.298;2024-03-25T03:02:06;70352.41;;;-146.40;97.79
13033;BME280;6583;42.632;23.298;2024-03-25T03:04:31;70350.38;;;-146.40;96.98
13033;BME280;6583;42.632;23.298;2024-03-25T03:06:58;70380.72;;;-146.40;94.98
13033;BME280;6583;42.632;23.298;2024-03-25T03:09:24;70392.88;;;-146.40;95.39
13033;BME280;6583;42.632;23.298;2024-03-25T03:11:50;70384.78;;;-146.40;96.03
13033;BME280;6583;42.632;23.298;2024-03-25T03:14:16;70384.78;;;-146.40;96.81
13033;BME280;6583;42.632;23.298;2024-03-25T03:16:43;70417.16;;;-146.40;95.36
13033;BME280;6583;42.632;23.298;2024-03-25T03:19:10;70411.06;;;-146.40;96.52
13033;BME280;6583;42.632;23.298;2024-03-25T03:21:37;70433.34;;;-146.40;95.82
13033;BME280;6583;42.632;23.298;2024-03-25T03:24:03;70423.22;;;-146.40;97.22
13033;BME280;6583;42.632;23.298;2024-03-25T03:26:29;70423.22;;;-146.40;97.01
13033;BME280;6583;42.632;23.298;2024-03-25T03:28:55;70429.28;;;-146.40;96.21
13033;BME280;6583;42.632;23.298;2024-03-25T03:31:22;70421.19;;;-146.40;96.48
13033;BME280;6583;42.632;23.298;2024-03-25T03:33:47;70425.25;;;-146.40;96.58
13033;BME280;6583;42.632;23.298;2024-03-25T03:36:18;70405.00;;;-146.40;97.41
13033;BME280;6583;42.632;23.298;2024-03-25T03:38:44;70398.94;;;-146.40;96.91
13033;BME280;6583;42.632;23.298;2024-03-25T03:41:11;70407.03;;;-146.40;96.04
13033;BME280;6583;42.632;23.298;2024-03-25T03:43:37;70411.06;;;-146.40;96.44
13033;BME280;6583;42.632;23.298;2024-03-25T03:46:04;70392.88;;;-146.40;95.90
13033;BME280;6583;42.632;23.298;2024-03-25T03:48:30;70398.94;;;-146.40;95.34
13033;BME280;6583;42.632;23.298;2024-03-25T03:50:57;70388.81;;;-146.40;94.44
13033;BME280;6583;42.632;23.298;2024-03-25T03:53:24;70396.91;;;-146.40;93.64
13033;BME280;6583;42.632;23.298;2024-03-25T03:55:54;70402.97;;;-146.40;93.40
13033;BME280;6583;42.632;23.298;2024-03-25T03:58:20;70405.00;;;-146.40;93.55
13033;BME280;6583;42.632;23.298;2024-03-25T04:00:46;70417.16;;;-146.40;92.69
13033;BME280;6583;42.632;23.298;2024-03-25T04:03:12;70429.28;;;-146.40;92.41
13033;BME280;6583;42.632;23.298;2024-03-25T04:05:38;70421.19;;;-146.40;93.09
13033;BME280;6583;42.632;23.298;2024-03-25T04:08:05;70439.41;;;-146.40;90.83
13033;BME280;6583;42.632;23.298;2024-03-25T04:10:33;70447.50;;;-146.40;89.85
13033;BME280;6583;42.632;23.298;2024-03-25T04:12:59;70455.59;;;-146.40;90.58
13033;BME280;6583;42.632;23.298;2024-03-25T04:15:26;70449.53;;;-146.40;91.50
13033;BME280;6583;42.632;23.298;2024-03-25T04:17:51;70461.66;;;-146.40;89.99
13033;BME280;6583;42.632;23.298;2024-03-25T04:20:18;70461.66;;;-146.40;90.29
13033;BME280;6583;42.632;23.298;2024-03-25T04:22:44;70461.66;;;-146.40;90.46
13033;BME280;6583;42.632;23.298;2024-03-25T04:25:12;70479.88;;;-146.40;88.42
13033;BME280;6583;42.632;23.298;2024-03-25T04:27:41;70477.84;;;-146.40;89.51
13033;BME280;6583;42.632;23.298;2024-03-25T04:30:08;70481.88;;;-146.40;90.58
13033;BME280;6583;42.632;23.298;2024-03-25T04:32:35;70504.16;;;-146.40;88.06
13033;BME280;6583;42.632;23.298;2024-03-25T04:35:05;70506.16;;;-146.40;87.80
13033;BME280;6583;42.632;23.298;2024-03-25T04:37:32;70506.16;;;-146.40;89.65
13033;BME280;6583;42.632;23.298;2024-03-25T04:39:58;70520.34;;;-146.40;88.41
13033;BME280;6583;42.632;23.298;2024-03-25T04:42:24;70518.31;;;-146.40;88.34
13033;BME280;6583;42.632;23.298;2024-03-25T04:44:51;70520.34;;;-146.40;88.49
13033;BME280;6583;42.632;23.298;2024-03-25T04:47:16;70522.34;;;-146.40;87.86
13033;BME280;6583;42.632;23.298;2024-03-25T04:49:42;70522.34;;;-146.40;88.91
13033;BME280;6583;42.632;23.298;2024-03-25T04:52:09;70532.47;;;-146.40;87.85
13033;BME280;6583;42.632;23.298;2024-03-25T04:54:34;70514.25;;;-146.40;88.83
13033;BME280;6583;42.632;23.298;2024-03-25T04:57:00;70512.25;;;-146.40;89.11
13033;BME280;6583;42.632;23.298;2024-03-25T04:59:26;70522.34;;;-146.40;88.08
13033;BME280;6583;42.632;23.298;2024-03-25T05:01:53;70520.34;;;-146.40;88.70
13033;BME280;6583;42.632;23.298;2024-03-25T05:04:18;70524.38;;;-146.40;89.56
13033;BME280;6583;42.632;23.298;2024-03-25T05:06:44;70534.50;;;-146.40;89.49
13033;BME280;6583;42.632;23.298;2024-03-25T05:09:10;70538.53;;;-146.40;89.18
13033;BME280;6583;42.632;23.298;2024-03-25T05:11:36;70550.69;;;-146.40;88.44
13033;BME280;6583;42.632;23.298;2024-03-25T05:14:01;70558.78;;;-146.40;89.47
13033;BME280;6583;42.632;23.298;2024-03-25T05:16:27;70550.69;;;-146.40;90.49
13033;BME280;6583;42.632;23.298;2024-03-25T05:18:54;70538.53;;;-146.40;90.02
13033;BME280;6583;42.632;23.298;2024-03-25T05:21:20;70542.59;;;-146.40;89.55
13033;BME280;6583;42.632;23.298;2024-03-25T05:23:46;70542.59;;;-146.40;88.06
13033;BME280;6583;42.632;23.298;2024-03-25T05:26:11;70542.59;;;-146.40;87.65
13033;BME280;6583;42.632;23.298;2024-03-25T05:28:37;70554.72;;;-146.40;88.73
13033;BME280;6583;42.632;23.298;2024-03-25T05:31:06;70536.50;;;-146.40;88.79
13033;BME280;6583;42.632;23.298;2024-03-25T05:33:32;70534.50;;;-146.40;88.88
13033;BME280;6583;42.632;23.298;2024-03-25T05:35:59;70550.69;;;-146.40;85.62
13033;BME280;6583;42.632;23.298;2024-03-25T05:38:26;70558.78;;;-146.40;85.91
13033;BME280;6583;42.632;23.298;2024-03-25T05:40:52;70556.75;;;-146.40;84.98
13033;BME280;6583;42.632;23.298;2024-03-25T05:43:18;70560.78;;;-146.40;85.04
13033;BME280;6583;42.632;23.298;2024-03-25T05:45:50;70574.97;;;-146.40;85.28
13033;BME280;6583;42.632;23.298;2024-03-25T05:48:16;70579.00;;;-146.40;84.12
13033;BME280;6583;42.632;23.298;2024-03-25T05:50:41;70570.91;;;-146.40;84.60
13033;BME280;6583;42.632;23.298;2024-03-25T05:53:08;70581.03;;;-146.40;83.46
13033;BME280;6583;42.632;23.298;2024-03-25T05:55:35;70603.28;;;-146.40;84.13
13033;BME280;6583;42.632;23.298;2024-03-25T05:58:00;70595.19;;;-146.40;85.58
13033;BME280;6583;42.632;23.298;2024-03-25T06:00:26;70574.97;;;-146.40;86.12
13033;BME280;6583;42.632;23.298;2024-03-25T06:02:52;70574.97;;;-146.40;84.65
13033;BME280;6583;42.632;23.298;2024-03-25T06:05:18;70554.72;;;-146.40;84.84
13033;BME280;6583;42.632;23.298;2024-03-25T06:07:43;70540.56;;;-146.40;82.13
13033;BME280;6583;42.632;23.298;2024-03-25T06:10:11;70534.50;;;-146.40;82.40
13033;BME280;6583;42.632;23.298;2024-03-25T06:12:37;70518.31;;;-146.40;81.92
13033;BME280;6583;42.632;23.298;2024-03-25T06:15:03;70526.41;;;-146.40;79.63
13033;BME280;6583;42.632;23.298;2024-03-25T06:17:28;70518.31;;;-146.40;79.54
13033;BME280;6583;42.632;23.298;2024-03-25T06:19:54;70494.03;;;-146.40;81.04
13033;BME280;6583;42.632;23.298;2024-03-25T06:22:20;70489.97;;;-146.40;78.48
13033;BME280;6583;42.632;23.298;2024-03-25T06:24:46;70492.00;;;-146.40;79.00
13033;BME280;6583;42.632;23.298;2024-03-25T06:27:13;70475.81;;;-146.40;76.36
13033;BME280;6583;42.632;23.298;2024-03-25T06:29:38;70477.84;;;-146.40;75.63
13033;BME280;6583;42.632;23.298;2024-03-25T06:32:05;70461.66;;;-146.40;75.62
13033;BME280;6583;42.632;23.298;2024-03-25T06:34:48;70469.75;;;-146.40;72.08
13033;BME280;6583;42.632;23.298;2024-03-25T06:37:14;70461.66;;;-146.40;72.43
13033;BME280;6583;42.632;23.298;2024-03-25T06:39:40;70459.63;;;-146.40;72.51
13033;BME280;6583;42.632;23.298;2024-03-25T06:42:06;70453.56;;;-146.40;72.37
13033;BME280;6583;42.632;23.298;2024-03-25T06:44:33;70441.44;;;-146.40;72.33
13033;BME280;6583;42.632;23.298;2024-03-25T06:46:58;70445.47;;;-146.40;69.38
13033;BME280;6583;42.632;23.298;2024-03-25T06:49:24;70457.59;;;-146.40;68.01
13033;BME280;6583;42.632;23.298;2024-03-25T06:51:50;70447.50;;;-146.40;70.95
13033;BME280;6583;42.632;23.298;2024-03-25T06:54:15;70427.25;;;-146.40;69.10
13033;BME280;6583;42.632;23.298;2024-03-25T06:56:41;70411.06;;;-146.40;70.08
13033;BME280;6583;42.632;23.298;2024-03-25T06:59:07;70392.88;;;-146.40;69.91
13033;BME280;6583;42.632;23.298;2024-03-25T07:01:34;70380.72;;;-146.40;69.62
13033;BME280;6583;42.632;23.298;2024-03-25T07:04:00;70374.66;;;-146.40;66.19
13033;BME280;6583;42.632;23.298;2024-03-25T07:06:25;70360.50;;;-146.40;64.89
13033;BME280;6583;42.632;23.298;2024-03-25T07:08:51;70344.31;;;-146.40;66.69
13033;BME280;6583;42.632;23.298;2024-03-25T07:11:17;70348.38;;;-146.40;63.57
13033;BME280;6583;42.632;23.298;2024-03-25T07:13:43;70352.41;;;-146.40;64.75
13033;BME280;6583;42.632;23.298;2024-03-25T07:16:09;70320.03;;;-146.40;66.62
13033;BME280;6583;42.632;23.298;2024-03-25T07:18:36;70322.06;;;-146.40;61.15
13033;BME280;6583;42.632;23.298;2024-03-25T07:21:02;70322.06;;;-146.40;59.11
13033;BME280;6583;42.632;23.298;2024-03-25T07:23:27;70332.19;;;-146.40;60.70
13033;BME280;6583;42.632;23.298;2024-03-25T07:25:53;70330.16;;;-146.40;59.39
13033;BME280;6583;42.632;23.298;2024-03-25T07:28:19;70307.91;;;-146.40;59.11
13033;BME280;6583;42.632;23.298;2024-03-25T07:30:44;70281.59;;;-146.40;61.95
13033;BME280;6583;42.632;23.298;2024-03-25T07:33:10;70297.78;;;-146.40;58.53
13033;BME280;6583;42.632;23.298;2024-03-25T07:35:37;70287.66;;;-146.40;58.42
13033;BME280;6583;42.632;23.298;2024-03-25T07:38:03;70287.66;;;-146.40;57.54
13033;BME280;6583;42.632;23.298;2024-03-25T07:40:29;70291.72;;;-146.40;54.58
13033;BME280;6583;42.632;23.298;2024-03-25T07:42:55;70311.94;;;-146.40;56.30
13033;BME280;6583;42.632;23.298;2024-03-25T07:45:20;70303.84;;;-146.40;54.21
13033;BME280;6583;42.632;23.298;2024-03-25T07:47:46;70326.09;;;-146.40;58.96
13033;BME280;6583;42.632;23.298;2024-03-25T07:50:12;70289.69;;;-146.40;58.28
13033;BME280;6583;42.632;23.298;2024-03-25T07:52:39;70301.84;;;-146.40;55.76
13033;BME280;6583;42.632;23.298;2024-03-25T07:55:05;70279.56;;;-146.40;56.01
13033;BME280;6583;42.632;23.298;2024-03-25T07:57:31;70287.66;;;-146.40;54.12
13033;BME280;6583;42.632;23.298;2024-03-25T07:59:57;70287.66;;;-146.40;56.58
13033;BME280;6583;42.632;23.298;2024-03-25T08:02:23;70273.50;;;-146.40;59.70
13033;BME280;6583;42.632;23.298;2024-03-25T08:04:48;70263.38;;;-146.40;56.20
13033;BME280;6583;42.632;23.298;2024-03-25T08:07:14;70277.56;;;-146.40;56.96
13033;BME280;6583;42.632;23.298;2024-03-25T08:09:41;70257.31;;;-146.40;58.79
13033;BME280;6583;42.632;23.298;2024-03-25T08:12:07;70224.94;;;-146.40;58.49
13033;BME280;6583;42.632;23.298;2024-03-25T08:14:33;70198.66;;;-146.40;57.29
13033;BME280;6583;42.632;23.298;2024-03-25T08:16:59;70186.50;;;-146.40;57.90
13033;BME280;6583;42.632;23.298;2024-03-25T08:19:24;70182.47;;;-146.40;57.63
13033;BME280;6583;42.632;23.298;2024-03-25T08:21:50;70166.28;;;-146.40;59.99
13033;BME280;6583;42.632;23.298;2024-03-25T08:24:16;70186.50;;;-146.40;55.03
13033;BME280;6583;42.632;23.298;2024-03-25T08:26:43;70178.44;;;-146.40;55.66
13033;BME280;6583;42.632;23.298;2024-03-25T08:29:08;70174.38;;;-146.40;56.07
13033;BME280;6583;42.632;23.298;2024-03-25T08:31:34;70186.50;;;-146.40;55.66
13033;BME280;6583;42.632;23.298;2024-03-25T08:34:00;70198.66;;;-146.40;55.82
13033;BME280;6583;42.632;23.298;2024-03-25T08:36:26;70174.38;;;-146.40;55.54
13033;BME280;6583;42.632;23.298;2024-03-25T08:38:51;70208.78;;;-146.40;53.95
13033;BME280;6583;42.632;23.298;2024-03-25T08:41:17;70235.06;;;-146.40;56.01
13033;BME280;6583;42.632;23.298;2024-03-25T08:43:44;70206.75;;;-146.40;56.06
13033;BME280;6583;42.632;23.298;2024-03-25T08:46:10;70196.63;;;-146.40;56.89
13033;BME280;6583;42.632;23.298;2024-03-25T08:48:36;70168.31;;;-146.40;58.05
13033;BME280;6583;42.632;23.298;2024-03-25T08:51:01;70150.09;;;-146.40;55.62
13033;BME280;6583;42.632;23.298;2024-03-25T08:53:27;70200.69;;;-146.40;54.26
13033;BME280;6583;42.632;23.298;2024-03-25T08:55:53;70180.44;;;-146.40;58.76
13033;BME280;6583;42.632;23.298;2024-03-25T08:58:19;70170.34;;;-146.40;56.54
13033;BME280;6583;42.632;23.298;2024-03-25T09:00:46;70146.06;;;-146.40;56.65
13033;BME280;6583;42.632;23.298;2024-03-25T09:03:11;70150.09;;;-146.40;55.53
13033;BME280;6583;42.632;23.298;2024-03-25T09:05:37;70144.03;;;-146.40;54.78
13033;BME280;6583;42.632;23.298;2024-03-25T09:08:04;70144.03;;;-146.40;53.93
13033;BME280;6583;42.632;23.298;2024-03-25T09:10:29;70137.97;;;-146.40;53.52
13033;BME280;6583;42.632;23.298;2024-03-25T09:13:13;70121.78;;;-146.40;56.33
13033;BME280;6583;42.632;23.298;2024-03-25T09:15:39;70113.69;;;-146.40;53.31
13033;BME280;6583;42.632;23.298;2024-03-25T09:18:06;70162.25;;;-146.40;51.21
13033;BME280;6583;42.632;23.298;2024-03-25T09:20:32;70148.09;;;-146.40;51.17
13033;BME280;6583;42.632;23.298;2024-03-25T09:22:58;70137.97;;;-146.40;51.56
13033;BME280;6583;42.632;23.298;2024-03-25T09:25:24;70115.72;;;-146.40;52.98
13033;BME280;6583;42.632;23.298;2024-03-25T09:27:50;70131.91;;;-146.40;53.44
13033;BME280;6583;42.632;23.298;2024-03-25T09:30:16;70125.81;;;-146.40;50.16
13033;BME280;6583;42.632;23.298;2024-03-25T09:32:42;70101.56;;;-146.40;52.09
13033;BME280;6583;42.632;23.298;2024-03-25T09:35:09;70081.31;;;-146.40;54.21
13033;BME280;6583;42.632;23.298;2024-03-25T09:37:35;70105.59;;;-146.40;53.00
13033;BME280;6583;42.632;23.298;2024-03-25T09:40:01;70121.78;;;-146.40;50.19
13033;BME280;6583;42.632;23.298;2024-03-25T09:42:43;70105.59;;;-146.40;52.10
13033;BME280;6583;42.632;23.298;2024-03-25T09:45:13;70101.56;;;-146.40;53.18
13033;BME280;6583;42.632;23.298;2024-03-25T09:47:41;70121.78;;;-146.40;49.68
13033;BME280;6583;42.632;23.298;2024-03-25T09:50:12;70125.81;;;-146.40;53.02
13033;BME280;6583;42.632;23.298;2024-03-25T09:52:38;70162.25;;;-146.40;50.70
13033;BME280;6583;42.632;23.298;2024-03-25T09:55:05;70154.16;;;-146.40;54.52
13033;BME280;6583;42.632;23.298;2024-03-25T09:57:31;70198.66;;;-146.40;51.98
13033;BME280;6583;42.632;23.298;2024-03-25T09:59:57;70190.56;;;-146.40;52.86
13033;BME280;6583;42.632;23.298;2024-03-25T10:02:23;70212.81;;;-146.40;53.78
13033;BME280;6583;42.632;23.298;2024-03-25T10:04:50;70226.97;;;-146.40;54.27
13033;BME280;6583;42.632;23.298;2024-03-25T10:07:22;70210.78;;;-146.40;55.20
13033;BME280;6583;42.632;23.298;2024-03-25T10:09:48;70226.97;;;-146.40;54.24
13033;BME280;6583;42.632;23.298;2024-03-25T10:12:14;70210.78;;;-146.40;54.71
13033;BME280;6583;42.632;23.298;2024-03-25T10:14:40;70198.66;;;-146.40;53.96
13033;BME280;6583;42.632;23.298;2024-03-25T10:17:06;70182.47;;;-146.40;52.66
13033;BME280;6583;42.632;23.298;2024-03-25T10:19:32;70186.50;;;-146.40;51.16
13033;BME280;6583;42.632;23.298;2024-03-25T10:22:02;70152.13;;;-146.40;52.84
13033;BME280;6583;42.632;23.298;2024-03-25T10:24:38;70144.03;;;-146.40;51.78
13033;BME280;6583;42.632;23.298;2024-03-25T10:27:04;70117.72;;;-146.40;51.51
13033;BME280;6583;42.632;23.298;2024-03-25T10:29:30;70142.00;;;-146.40;50.87
13033;BME280;6583;42.632;23.298;2024-03-25T10:31:59;70164.25;;;-146.40;50.70
13033;BME280;6583;42.632;23.298;2024-03-25T10:34:24;70156.16;;;-146.40;51.16
13033;BME280;6583;42.632;23.298;2024-03-25T10:36:52;70140.00;;;-146.40;50.70
13033;BME280;6583;42.632;23.298;2024-03-25T10:39:20;70123.81;;;-146.40;49.99
13033;BME280;6583;42.632;23.298;2024-03-25T10:41:50;70131.91;;;-146.40;48.98
13033;BME280;6583;42.632;23.298;2024-03-25T10:44:16;70121.78;;;-146.40;49.57
13033;BME280;6583;42.632;23.298;2024-03-25T10:46:43;70105.59;;;-146.40;45.98
13033;BME280;6583;42.632;23.298;2024-03-25T10:49:14;70125.81;;;-146.40;43.44
13033;BME280;6583;42.632;23.298;2024-03-25T10:51:43;70117.72;;;-146.40;45.10
13033;BME280;6583;42.632;23.298;2024-03-25T10:54:10;70097.50;;;-146.40;45.58
13033;BME280;6583;42.632;23.298;2024-03-25T10:56:38;70101.56;;;-146.40;42.40
13033;BME280;6583;42.632;23.298;2024-03-25T10:59:05;70107.63;;;-146.40;41.79
13033;BME280;6583;42.632;23.298;2024-03-25T11:01:33;70105.59;;;-146.40;43.72
13033;BME280;6583;42.632;23.298;2024-03-25T11:03:59;70103.56;;;-146.40;44.45
13033;BME280;6583;42.632;23.298;2024-03-25T11:06:25;70162.25;;;-146.40;42.60
13033;BME280;6583;42.632;23.298;2024-03-25T11:08:55;70182.47;;;-146.40;42.85
13033;BME280;6583;42.632;23.298;2024-03-25T11:11:21;70180.44;;;-146.40;43.73
13033;BME280;6583;42.632;23.298;2024-03-25T11:13:47;70166.28;;;-146.40;44.85
13033;BME280;6583;42.632;23.298;2024-03-25T11:16:26;70162.25;;;-146.40;44.74
13033;BME280;6583;42.632;23.298;2024-03-25T11:18:54;70137.97;;;-146.40;45.78
13033;BME280;6583;42.632;23.298;2024-03-25T11:21:24;70129.88;;;-146.40;45.97
13033;BME280;6583;42.632;23.298;2024-03-25T11:23:51;70150.09;;;-146.40;44.72
13033;BME280;6583;42.632;23.298;2024-03-25T11:26:19;70121.78;;;-146.40;45.52
13033;BME280;6583;42.632;23.298;2024-03-25T11:28:45;70123.81;;;-146.40;44.88
13033;BME280;6583;42.632;23.298;2024-03-25T11:31:11;70135.94;;;-146.40;43.56
13033;BME280;6583;42.632;23.298;2024-03-25T11:33:38;70150.09;;;-146.40;46.05
13033;BME280;6583;42.632;23.298;2024-03-25T11:36:04;70184.50;;;-146.40;48.48
13033;BME280;6583;42.632;23.298;2024-03-25T11:38:30;70186.50;;;-146.40;51.12
13033;BME280;6583;42.632;23.298;2024-03-25T11:40:56;70200.69;;;-146.40;50.68
13033;BME280;6583;42.632;23.298;2024-03-25T11:43:23;70231.03;;;-146.40;49.71
13033;BME280;6583;42.632;23.298;2024-03-25T11:45:49;70261.38;;;-146.40;47.44
13033;BME280;6583;42.632;23.298;2024-03-25T11:48:15;70277.56;;;-146.40;47.93
13033;BME280;6583;42.632;23.298;2024-03-25T11:50:45;70285.66;;;-146.40;48.17
13033;BME280;6583;42.632;23.298;2024-03-25T11:53:13;70271.47;;;-146.40;49.77
13033;BME280;6583;42.632;23.298;2024-03-25T11:55:39;70271.47;;;-146.40;48.84
13033;BME280;6583;42.632;23.298;2024-03-25T11:58:05;70267.44;;;-146.40;50.70
13033;BME280;6583;42.632;23.298;2024-03-25T12:00:30;70245.19;;;-146.40;52.84
13033;BME280;6583;42.632;23.298;2024-03-25T12:02:56;70253.28;;;-146.40;50.79
13033;BME280;6583;42.632;23.298;2024-03-25T12:05:22;70265.41;;;-146.40;51.87
13033;BME280;6583;42.632;23.298;2024-03-25T12:07:49;70277.56;;;-146.40;50.34
13033;BME280;6583;42.632;23.298;2024-03-25T12:10:15;70255.28;;;-146.40;53.20
13033;BME280;6583;42.632;23.298;2024-03-25T12:13:08;70229.00;;;-146.40;52.19
13033;BME280;6583;42.632;23.298;2024-03-25T12:15:33;70214.84;;;-146.40;50.08
13033;BME280;6583;42.632;23.298;2024-03-25T12:17:59;70186.50;;;-146.40;50.18
13033;BME280;6583;42.632;23.298;2024-03-25T12:20:25;70166.28;;;-146.40;47.28
13033;BME280;6583;42.632;23.298;2024-03-25T12:22:53;70174.38;;;-146.40;46.89
13033;BME280;6583;42.632;23.298;2024-03-25T12:25:19;70166.28;;;-146.40;48.72
13033;BME280;6583;42.632;23.298;2024-03-25T12:27:46;70190.56;;;-146.40;46.65
13033;BME280;6583;42.632;23.298;2024-03-25T12:30:12;70231.03;;;-146.40;45.93
13033;BME280;6583;42.632;23.298;2024-03-25T12:32:39;70214.84;;;-146.40;46.35
13033;BME280;6583;42.632;23.298;2024-03-25T12:35:07;70222.94;;;-146.40;48.33